Time;durP1;ratioP1;P1;durP2;ratioP2;P2;SDS_P1;SDS_P2;PMS_P1;PMS_P2;Temp;Humidity;BMP_temperature;BMP_pressure;BME280_temperature;BME280_humidity;BME280_pressure;Samples;Min_cycle;Max_cycle;Signal;HPM_P1;HPM_P2
2023/06/30 17:35:10;;;;;;;5.60;2.00;;;;;;;23.79;45.04;100895.31;5058114;28;20520;-68
2023/06/30 17:37:36;;;;;;;2.50;1.55;;;;;;;23.28;45.55;100892.47;5041023;28;20127;-70
2023/06/30 17:40:02;;;;;;;3.38;1.50;;;;;;;22.98;46.56;100892.09;5042230;28;20503;-70
2023/06/30 17:42:27;;;;;;;3.20;1.38;;;;;;;22.76;47.59;100890.69;5031254;28;20072;-70
2023/06/30 17:44:53;;;;;;;2.83;1.20;;;;;;;22.55;48.42;100893.59;5037192;28;20045;-70
2023/06/30 17:47:19;;;;;;;3.97;1.35;;;;;;;22.42;49.30;100895.63;5038828;28;20043;-69
2023/06/30 18:16:10;;;;;;;;;;;;;;;21.43;51.62;100899.53;5009741;23;20065;-69
2023/06/30 18:18:36;;;;;;;4.13;1.70;;;;;;;21.37;52.92;100905.53;4999131;28;20020;-69
2023/06/30 18:21:01;;;;;;;;;;;;;;;21.33;54.59;100902.66;4999961;28;20412;-71
2023/06/30 18:26:15;;;;;;;3.92;1.33;;;;;;;21.21;54.52;100899.91;5659872;22;20127;-69
2023/06/30 18:28:41;;;;;;;;;;;;;;;21.19;56.54;100885.81;4999362;28;20126;-70
2023/06/30 18:31:06;;;;;;;4.80;1.80;;;;;;;21.12;55.05;100899.19;4998199;28;19918;-70
2023/06/30 18:33:32;;;;;;;;;;;;;;;21.03;54.08;100891.13;4986769;28;20520;-70
2023/06/30 18:35:58;;;;;;;4.22;1.42;;;;;;;20.99;52.87;100890.19;4969347;28;19976;-68
2023/06/30 18:38:24;;;;;;;;;;;;;;;21.01;54.61;100892.59;4969218;28;20074;-67
2023/06/30 18:40:50;;;;;;;4.32;1.52;;;;;;;20.95;54.65;100895.53;4969526;28;19914;-69
2023/06/30 18:43:15;;;;;;;;;;;;;;;20.93;55.54;100896.97;4968035;28;20027;-70
2023/06/30 18:45:41;;;;;;;4.32;1.30;;;;;;;20.86;55.06;100903.00;4952144;28;20317;-69
2023/06/30 18:48:06;;;;;;;2.17;1.50;;;;;;;20.78;54.83;100895.69;4971135;28;20038;-69
2023/06/30 18:50:32;;;;;;;3.90;1.38;;;;;;;20.73;54.59;100895.91;4969169;28;20783;-70
2023/06/30 18:52:58;;;;;;;;;;;;;;;20.64;55.11;100893.25;4967147;28;20026;-69
2023/06/30 18:55:23;;;;;;;5.18;1.70;;;;;;;20.59;54.82;100892.66;4969777;28;19918;-69
2023/06/30 18:57:49;;;;;;;;;;;;;;;20.53;54.75;100894.00;4972848;28;20105;-73
2023/06/30 19:00:15;;;;;;;4.47;2.15;;;;;;;20.48;54.63;100899.66;4965838;28;19922;-68
2023/06/30 19:02:40;;;;;;;5.40;1.52;;;;;;;20.42;54.44;100899.81;4969722;28;20065;-69
2023/06/30 19:05:06;;;;;;;;;;;;;;;20.38;55.17;100893.44;4966776;28;20058;-71
2023/06/30 19:07:32;;;;;;;4.20;1.45;;;;;;;20.33;54.73;100901.81;4971782;28;19932;-70
2023/06/30 19:09:58;;;;;;;;;;;;;;;20.29;55.29;100889.19;4971940;28;20034;-69
2023/06/30 19:12:24;;;;;;;4.07;1.58;;;;;;;20.24;54.45;100898.34;4965632;28;19929;-69
2023/06/30 19:14:49;;;;;;;4.28;1.52;;;;;;;20.20;54.02;100900.13;4964309;28;20038;-69
2023/06/30 19:17:15;;;;;;;;;;;;;;;20.12;53.85;100890.91;4991519;28;20069;-70
2023/06/30 19:19:40;;;;;;;6.07;1.52;;;;;;;20.09;53.73;100893.47;4966914;28;20318;-71
2023/06/30 19:22:06;;;;;;;;;;;;;;;20.09;53.75;100901.63;4964087;28;20085;-69
2023/06/30 19:24:31;;;;;;;2.30;1.13;;;;;;;19.94;54.08;100891.34;4966563;28;20466;-71
2023/06/30 19:26:57;;;;;;;;;;;;;;;19.85;54.57;100889.47;4969957;28;20046;-70
2023/06/30 19:29:22;;;;;;;2.38;1.40;;;;;;;19.76;54.27;100877.84;4967109;28;19988;-69
2023/06/30 19:31:48;;;;;;;7.00;1.45;;;;;;;19.74;54.48;100885.53;4968984;28;20117;-70
2023/06/30 19:34:14;;;;;;;;;;;;;;;19.68;54.96;100880.63;4955331;28;20050;-68
2023/06/30 19:36:39;;;;;;;4.03;1.90;;;;;;;19.60;54.62;100879.53;4966573;28;19922;-71
2023/06/30 19:39:05;;;;;;;;;;;;;;;19.56;55.64;100889.41;4967486;28;20121;-67
2023/06/30 19:41:30;;;;;;;4.82;1.48;;;;;;;19.55;55.17;100893.25;4968722;28;19936;-69
2023/06/30 19:43:56;;;;;;;;;;;;;;;19.52;55.63;100892.00;4988638;28;20035;-66
2023/06/30 19:46:22;;;;;;;3.85;1.38;;;;;;;19.44;55.61;100884.69;4968535;28;20512;-68
2023/06/30 19:48:47;;;;;;;6.15;1.77;;;;;;;19.42;55.75;100892.34;4965726;28;20046;-69
2023/06/30 19:51:13;;;;;;;;;;;;;;;19.38;56.10;100888.72;4967026;28;20041;-66
2023/06/30 19:53:39;;;;;;;4.22;1.48;;;;;;;19.32;55.90;100890.00;4968656;28;19918;-67
2023/06/30 19:56:05;;;;;;;;;;;;;;;19.31;56.33;100888.41;4972487;28;20513;-67
2023/06/30 19:58:31;;;;;;;3.25;1.38;;;;;;;19.28;55.61;100889.84;4967733;28;19926;-68
2023/06/30 20:00:57;;;;;;;;;;;;;;;19.28;55.98;100900.69;4969481;28;20109;-67
2023/06/30 20:03:22;;;;;;;4.13;1.58;;;;;;;19.30;55.78;100898.44;4971222;28;20397;-68
2023/06/30 20:05:48;;;;;;;;;;;;;;;19.32;56.40;100898.94;4961061;28;20465;-72
2023/06/30 20:08:13;;;;;;;6.57;1.85;;;;;;;19.55;55.98;100904.13;4929378;28;19914;-71
2023/06/30 20:11:04;;;;;;;;;;;;;;;19.79;55.82;100901.66;4983280;28;20086;-69
2023/06/30 20:13:30;;;;;;;3.40;1.27;;;;;;;20.05;55.05;100890.66;4947801;28;19926;-70
2023/06/30 20:15:55;;;;;;;;;;;;;;;20.26;55.34;100898.81;4949445;28;20035;-71
2023/06/30 20:18:21;;;;;;;4.53;1.48;;;;;;;20.41;54.98;100890.06;4948341;28;19993;-71
2023/06/30 20:20:47;;;;;;;4.28;2.55;;;;;;;20.57;54.83;100886.75;4949727;28;20054;-71
2023/06/30 20:23:12;;;;;;;;;;;;;;;20.70;55.08;100893.84;4947854;28;20430;-70
2023/06/30 20:25:38;;;;;;;7.20;1.60;;;;;;;20.82;54.55;100884.94;4950617;28;20000;-72
2023/06/30 20:28:03;;;;;;;;;;;;;;;20.92;54.90;100884.50;4946626;28;20038;-71
2023/06/30 20:30:32;;;;;;;2.03;1.23;;;;;;;21.02;54.38;100888.75;4947109;28;20373;-70
2023/06/30 20:32:57;;;;;;;3.58;1.23;;;;;;;21.11;54.14;100884.00;4946948;28;20066;-71
2023/06/30 20:35:23;;;;;;;;;;;;;;;21.19;54.53;100874.94;4931187;28;20042;-70
2023/06/30 20:37:49;;;;;;;5.15;1.40;;;;;;;21.24;54.23;100874.72;4948316;28;19918;-70
2023/06/30 20:40:14;;;;;;;;;;;;;;;21.30;54.42;100884.28;4947694;28;20039;-70
2023/06/30 20:42:40;;;;;;;2.33;1.40;;;;;;;21.35;54.19;100878.63;4947387;28;20005;-71
2023/06/30 20:45:06;;;;;;;;;;;;;;;21.39;54.47;100876.81;4947534;28;20134;-73
2023/06/30 20:47:31;;;;;;;5.10;1.10;;;;;;;21.44;54.25;100862.16;4948127;28;19918;-72
2023/06/30 20:49:58;;;;;;;;;;;;;;;21.47;54.32;100873.19;4949186;28;20046;-73
2023/06/30 20:52:23;;;;;;;2.78;1.27;;;;;;;21.50;54.19;100867.06;4947328;28;20021;-70
2023/06/30 20:54:49;;;;;;;;;;;;;;;21.55;54.32;100865.25;4945609;28;20119;-73
2023/06/30 20:57:14;;;;;;;2.40;1.27;;;;;;;21.58;54.05;100859.09;4947442;28;19925;-70
2023/06/30 20:59:40;;;;;;;;;;;;;;;21.61;54.30;100861.13;4948070;28;20110;-72
2023/06/30 21:02:06;;;;;;;3.95;1.10;;;;;;;21.64;54.09;100865.94;4946932;28;19918;-71
2023/06/30 21:04:31;;;;;;;;;;;;;;;21.67;54.08;100860.56;4947280;28;20031;-71
2023/06/30 21:06:57;;;;;;;2.65;1.40;;;;;;;21.70;54.14;100853.66;4946599;28;19923;-71
2023/06/30 21:09:22;;;;;;;3.75;1.58;;;;;;;21.72;54.24;100856.84;4946156;28;20039;-70
2023/06/30 21:11:48;;;;;;;;;;;;;;;21.75;54.31;100859.69;4946363;28;20429;-71
2023/06/30 21:14:14;;;;;;;2.05;1.48;;;;;;;21.77;53.99;100854.66;4931046;28;19996;-72
2023/06/30 21:16:41;;;;;;;2.17;1.38;;;;;;;21.79;54.00;100852.38;4945447;28;20043;-71
2023/06/30 21:19:10;;;;;;;2.80;1.27;;;;;;;21.83;54.24;100847.06;4950278;28;20126;-70
2023/06/30 21:21:35;;;;;;;2.67;1.30;;;;;;;21.85;54.19;100850.22;4975970;28;20046;-72
2023/06/30 21:24:01;;;;;;;;;;;;;;;21.87;54.27;100850.66;4946534;28;20035;-71
2023/06/30 21:26:27;;;;;;;2.58;1.50;;;;;;;21.90;54.25;100850.00;4942817;28;19922;-70
2023/06/30 21:28:52;;;;;;;;;;;;;;;21.91;54.33;100843.41;4946763;28;20042;-71
2023/06/30 21:31:18;;;;;;;2.05;1.40;;;;;;;21.93;54.20;100846.56;4945177;28;19926;-70
2023/06/30 21:33:43;;;;;;;1.52;0.93;;;;;;;21.97;54.14;100842.03;4958210;28;20062;-71
2023/06/30 21:36:09;;;;;;;2.30;1.23;;;;;;;22.01;54.05;100837.47;4929987;28;20379;-72
2023/06/30 21:38:34;;;;;;;1.95;1.10;;;;;;;22.04;54.06;100833.28;4947141;28;20039;-71
2023/06/30 21:41:01;;;;;;;3.05;1.00;;;;;;;22.07;54.07;100835.28;4946157;28;20035;-70
2023/06/30 21:43:27;;;;;;;2.60;1.38;;;;;;;22.11;53.87;100830.00;4945113;28;20035;-70
2023/06/30 21:45:55;;;;;;;2.10;1.15;;;;;;;22.12;53.99;100826.91;4978612;28;20031;-71
2023/06/30 21:48:20;;;;;;;2.63;1.50;;;;;;;22.14;54.06;100823.84;4929121;28;20051;-72
2023/06/30 21:50:46;;;;;;;1.95;1.08;;;;;;;22.16;53.92;100816.13;4946830;28;20035;-71
2023/06/30 21:53:12;;;;;;;2.83;1.25;;;;;;;22.17;54.07;100812.25;4945205;28;20031;-70
2023/06/30 21:55:40;;;;;;;1.70;1.10;;;;;;;22.20;54.04;100803.34;4946636;28;20028;-71
2023/06/30 21:58:06;;;;;;;2.35;1.20;;;;;;;22.22;54.02;100803.81;4945101;28;20580;-71
2023/06/30 22:00:32;;;;;;;2.33;1.20;;;;;;;22.23;53.97;100799.97;4975253;28;20070;-69
2023/06/30 22:02:57;;;;;;;;;;;;;;;22.22;54.33;100792.91;4948485;28;20070;-69
2023/06/30 22:05:25;;;;;;;5.47;1.10;;;;;;;22.24;53.96;100807.00;4949786;28;19918;-70
2023/06/30 22:07:51;;;;;;;5.60;2.40;;;;;;;22.16;53.01;100797.03;4930231;29;20074;-70
2023/06/30 22:10:17;;;;;;;;;;;;;;;22.07;53.54;100797.91;4946401;28;20494;-73
2023/06/30 22:12:44;;;;;;;5.60;2.33;;;;;;;22.07;53.33;100794.38;4950505;28;19946;-68
2023/06/30 22:15:10;;;;;;;5.43;2.75;;;;;;;22.07;53.28;100797.91;4949993;28;20037;-72
2023/06/30 22:17:37;;;;;;;3.22;2.10;;;;;;;22.10;53.50;100787.50;4948012;28;20059;-69
